sensor_id;sensor_type;location;lat;lon;timestamp;temperature;humidity
49731;DHT22;35622;52.008;5.426;2024-02-15T00:00:36;16.30;99.90
49731;DHT22;35622;52.008;5.426;2024-02-15T00:03:03;16.30;99.90
49731;DHT22;35622;52.008;5.426;2024-02-15T00:05:32;16.30;99.90
49731;DHT22;35622;52.008;5.426;2024-02-15T00:07:58;16.30;99.90
49731;DHT22;35622;52.008;5.426;2024-02-15T00:10:23;16.40;99.90
49731;DHT22;35622;52.008;5.426;2024-02-15T00:12:50;16.40;99.90
49731;DHT22;35622;52.008;5.426;2024-02-15T00:15:16;16.40;99.90
49731;DHT22;35622;52.008;5.426;2024-02-15T00:17:42;16.40;99.90
49731;DHT22;35622;52.008;5.426;2024-02-15T00:20:08;16.20;99.90
49731;DHT22;35622;52.008;5.426;2024-02-15T00:22:37;16.30;99.90
49731;DHT22;35622;52.008;5.426;2024-02-15T00:25:03;16.30;99.90
49731;DHT22;35622;52.008;5.426;2024-02-15T00:27:30;16.20;99.90
49731;DHT22;35622;52.008;5.426;2024-02-15T00:29:58;16.40;99.90
49731;DHT22;35622;52.008;5.426;2024-02-15T00:32:23;16.40;99.90
49731;DHT22;35622;52.008;5.426;2024-02-15T00:34:49;16.50;99.90
49731;DHT22;35622;52.008;5.426;2024-02-15T00:37:15;16.50;99.90
49731;DHT22;35622;52.008;5.426;2024-02-15T00:39:41;16.50;99.90
49731;DHT22;35622;52.008;5.426;2024-02-15T00:42:08;16.60;99.90
49731;DHT22;35622;52.008;5.426;2024-02-15T00:44:34;16.50;99.90
49731;DHT22;35622;52.008;5.426;2024-02-15T00:47:00;16.50;99.90
49731;DHT22;35622;52.008;5.426;2024-02-15T00:49:26;16.60;99.90
49731;DHT22;35622;52.008;5.426;2024-02-15T00:51:53;16.60;99.90
49731;DHT22;35622;52.008;5.426;2024-02-15T00:54:19;16.60;99.90
49731;DHT22;35622;52.008;5.426;2024-02-15T00:56:44;16.60;99.90
49731;DHT22;35622;52.008;5.426;2024-02-15T00:59:10;16.60;99.90
49731;DHT22;35622;52.008;5.426;2024-02-15T01:01:36;16.60;99.90
49731;DHT22;35622;52.008;5.426;2024-02-15T01:04:06;16.70;99.90
49731;DHT22;35622;52.008;5.426;2024-02-15T01:06:31;16.60;99.90
49731;DHT22;35622;52.008;5.426;2024-02-15T01:08:58;16.70;99.90
49731;DHT22;35622;52.008;5.426;2024-02-15T01:11:26;16.70;99.90
49731;DHT22;35622;52.008;5.426;2024-02-15T01:13:54;16.50;99.90
49731;DHT22;35622;52.008;5.426;2024-02-15T01:16:19;16.50;99.90
49731;DHT22;35622;52.008;5.426;2024-02-15T01:18:47;16.40;99.90
49731;DHT22;35622;52.008;5.426;2024-02-15T01:21:12;16.40;99.90
49731;DHT22;35622;52.008;5.426;2024-02-15T01:23:38;16.50;99.90
49731;DHT22;35622;52.008;5.426;2024-02-15T01:26:04;16.30;99.90
49731;DHT22;35622;52.008;5.426;2024-02-15T01:28:30;16.20;99.90
49731;DHT22;35622;52.008;5.426;2024-02-15T01:30:56;16.20;99.90
49731;DHT22;35622;52.008;5.426;2024-02-15T01:33:21;16.20;99.90
49731;DHT22;35622;52.008;5.426;2024-02-15T01:35:47;16.20;99.90
49731;DHT22;35622;52.008;5.426;2024-02-15T01:38:13;16.30;99.90
49731;DHT22;35622;52.008;5.426;2024-02-15T01:40:39;16.30;99.90
49731;DHT22;35622;52.008;5.426;2024-02-15T01:43:05;16.40;99.90
49731;DHT22;35622;52.008;5.426;2024-02-15T01:45:31;16.40;99.90
49731;DHT22;35622;52.008;5.426;2024-02-15T01:47:56;16.30;99.90
49731;DHT22;35622;52.008;5.426;2024-02-15T01:50:23;16.30;99.90
49731;DHT22;35622;52.008;5.426;2024-02-15T01:52:53;16.30;99.90
49731;DHT22;35622;52.008;5.426;2024-02-15T01:55:20;16.40;99.90
49731;DHT22;35622;52.008;5.426;2024-02-15T01:57:48;16.30;99.90
49731;DHT22;35622;52.008;5.426;2024-02-15T02:00:18;16.50;99.90
49731;DHT22;35622;52.008;5.426;2024-02-15T02:02:45;16.40;99.90
49731;DHT22;35622;52.008;5.426;2024-02-15T02:05:11;16.50;99.90
49731;DHT22;35622;52.008;5.426;2024-02-15T02:07:37;16.40;99.90
49731;DHT22;35622;52.008;5.426;2024-02-15T02:10:04;16.40;99.90
49731;DHT22;35622;52.008;5.426;2024-02-15T02:12:31;16.50;99.90
49731;DHT22;35622;52.008;5.426;2024-02-15T02:14:57;16.60;99.90
49731;DHT22;35622;52.008;5.426;2024-02-15T02:17:22;16.40;99.90
49731;DHT22;35622;52.008;5.426;2024-02-15T02:19:48;16.50;99.90
49731;DHT22;35622;52.008;5.426;2024-02-15T02:22:18;16.50;99.90
49731;DHT22;35622;52.008;5.426;2024-02-15T02:27:27;16.40;99.90
49731;DHT22;35622;52.008;5.426;2024-02-15T02:29:56;16.40;99.90
49731;DHT22;35622;52.008;5.426;2024-02-15T02:32:24;16.40;99.90
49731;DHT22;35622;52.008;5.426;2024-02-15T02:34:49;16.40;99.90
49731;DHT22;35622;52.008;5.426;2024-02-15T02:37:15;16.40;99.90
49731;DHT22;35622;52.008;5.426;2024-02-15T02:39:41;16.20;99.90
49731;DHT22;35622;52.008;5.426;2024-02-15T02:42:08;16.20;99.90
49731;DHT22;35622;52.008;5.426;2024-02-15T02:44:34;16.20;99.90
49731;DHT22;35622;52.008;5.426;2024-02-15T02:46:59;16.10;99.90
49731;DHT22;35622;52.008;5.426;2024-02-15T02:49:25;16.20;99.90
49731;DHT22;35622;52.008;5.426;2024-02-15T02:51:51;16.20;99.90
49731;DHT22;35622;52.008;5.426;2024-02-15T02:54:16;16.00;99.90
49731;DHT22;35622;52.008;5.426;2024-02-15T02:56:42;15.90;99.90
49731;DHT22;35622;52.008;5.426;2024-02-15T02:59:10;16.00;99.90
49731;DHT22;35622;52.008;5.426;2024-02-15T03:01:36;15.90;99.90
49731;DHT22;35622;52.008;5.426;2024-02-15T03:04:02;16.00;99.90
49731;DHT22;35622;52.008;5.426;2024-02-15T03:06:28;15.90;99.90
49731;DHT22;35622;52.008;5.426;2024-02-15T03:08:53;15.90;99.90
49731;DHT22;35622;52.008;5.426;2024-02-15T03:11:23;15.80;99.90
49731;DHT22;35622;52.008;5.426;2024-02-15T03:13:48;15.70;99.90
49731;DHT22;35622;52.008;5.426;2024-02-15T03:16:14;15.70;99.90
49731;DHT22;35622;52.008;5.426;2024-02-15T03:18:42;15.70;99.90
49731;DHT22;35622;52.008;5.426;2024-02-15T03:21:08;15.80;99.90
49731;DHT22;35622;52.008;5.426;2024-02-15T03:23:39;15.80;99.90
49731;DHT22;35622;52.008;5.426;2024-02-15T03:26:07;15.80;99.90
49731;DHT22;35622;52.008;5.426;2024-02-15T03:28:33;15.90;99.90
49731;DHT22;35622;52.008;5.426;2024-02-15T03:31:02;15.90;99.90
49731;DHT22;35622;52.008;5.426;2024-02-15T03:33:27;15.90;99.90
49731;DHT22;35622;52.008;5.426;2024-02-15T03:35:58;15.80;99.90
49731;DHT22;35622;52.008;5.426;2024-02-15T03:38:26;15.80;99.90
49731;DHT22;35622;52.008;5.426;2024-02-15T03:40:52;15.90;99.90
49731;DHT22;35622;52.008;5.426;2024-02-15T03:43:19;15.90;99.90
49731;DHT22;35622;52.008;5.426;2024-02-15T03:45:44;15.90;99.90
49731;DHT22;35622;52.008;5.426;2024-02-15T03:48:10;15.90;99.90
49731;DHT22;35622;52.008;5.426;2024-02-15T03:50:36;15.90;99.90
49731;DHT22;35622;52.008;5.426;2024-02-15T03:53:01;15.80;99.90
49731;DHT22;35622;52.008;5.426;2024-02-15T03:55:27;15.90;99.90
49731;DHT22;35622;52.008;5.426;2024-02-15T03:57:52;15.90;99.90
49731;DHT22;35622;52.008;5.426;2024-02-15T04:00:20;15.90;99.90
49731;DHT22;35622;52.008;5.426;2024-02-15T04:02:46;15.90;99.90
49731;DHT22;35622;52.008;5.426;2024-02-15T04:05:14;15.80;99.90
49731;DHT22;35622;52.008;5.426;2024-02-15T04:07:40;15.80;99.90
49731;DHT22;35622;52.008;5.426;2024-02-15T04:10:06;15.90;99.90
49731;DHT22;35622;52.008;5.426;2024-02-15T04:12:32;15.90;99.90
49731;DHT22;35622;52.008;5.426;2024-02-15T04:14:58;15.90;99.90
49731;DHT22;35622;52.008;5.426;2024-02-15T04:17:32;15.90;99.90
49731;DHT22;35622;52.008;5.426;2024-02-15T04:20:00;15.90;99.90
49731;DHT22;35622;52.008;5.426;2024-02-15T04:22:26;15.90;99.90
49731;DHT22;35622;52.008;5.426;2024-02-15T04:24:52;15.80;99.90
49731;DHT22;35622;52.008;5.426;2024-02-15T04:27:17;15.80;99.90
49731;DHT22;35622;52.008;5.426;2024-02-15T04:29:46;15.80;99.90
49731;DHT22;35622;52.008;5.426;2024-02-15T04:32:12;15.80;99.90
49731;DHT22;35622;52.008;5.426;2024-02-15T04:34:41;15.80;99.90
49731;DHT22;35622;52.008;5.426;2024-02-15T04:37:07;15.90;99.90
49731;DHT22;35622;52.008;5.426;2024-02-15T04:39:37;15.90;99.90
49731;DHT22;35622;52.008;5.426;2024-02-15T04:42:03;15.90;99.90
49731;DHT22;35622;52.008;5.426;2024-02-15T04:44:30;15.90;99.90
49731;DHT22;35622;52.008;5.426;2024-02-15T04:46:57;16.00;99.90
49731;DHT22;35622;52.008;5.426;2024-02-15T04:49:24;16.00;99.90
49731;DHT22;35622;52.008;5.426;2024-02-15T04:51:49;16.10;99.90
49731;DHT22;35622;52.008;5.426;2024-02-15T04:54:15;16.10;99.90
49731;DHT22;35622;52.008;5.426;2024-02-15T04:56:41;16.10;99.90
49731;DHT22;35622;52.008;5.426;2024-02-15T04:59:10;16.10;99.90
49731;DHT22;35622;52.008;5.426;2024-02-15T05:01:43;16.20;99.90
49731;DHT22;35622;52.008;5.426;2024-02-15T05:04:10;16.20;99.90
49731;DHT22;35622;52.008;5.426;2024-02-15T05:06:36;16.20;99.90
49731;DHT22;35622;52.008;5.426;2024-02-15T05:09:02;16.20;99.90
49731;DHT22;35622;52.008;5.426;2024-02-15T05:11:37;16.10;99.90
49731;DHT22;35622;52.008;5.426;2024-02-15T05:14:03;16.00;99.90
49731;DHT22;35622;52.008;5.426;2024-02-15T05:16:36;16.10;99.90
49731;DHT22;35622;52.008;5.426;2024-02-15T05:19:08;15.90;99.90
49731;DHT22;35622;52.008;5.426;2024-02-15T05:21:36;15.90;99.90
49731;DHT22;35622;52.008;5.426;2024-02-15T05:24:03;15.90;99.90
49731;DHT22;35622;52.008;5.426;2024-02-15T05:26:29;15.90;99.90
49731;DHT22;35622;52.008;5.426;2024-02-15T05:28:55;15.90;99.90
49731;DHT22;35622;52.008;5.426;2024-02-15T05:31:21;16.00;99.90
49731;DHT22;35622;52.008;5.426;2024-02-15T05:33:51;15.90;99.90
49731;DHT22;35622;52.008;5.426;2024-02-15T05:36:18;15.90;99.90
49731;DHT22;35622;52.008;5.426;2024-02-15T05:38:49;15.90;99.90
49731;DHT22;35622;52.008;5.426;2024-02-15T05:41:15;16.00;99.90
49731;DHT22;35622;52.008;5.426;2024-02-15T05:43:41;16.00;99.90
49731;DHT22;35622;52.008;5.426;2024-02-15T05:46:08;16.00;99.90
49731;DHT22;35622;52.008;5.426;2024-02-15T05:48:34;16.10;99.90
49731;DHT22;35622;52.008;5.426;2024-02-15T05:51:01;15.90;99.90
49731;DHT22;35622;52.008;5.426;2024-02-15T05:53:27;15.70;99.90
49731;DHT22;35622;52.008;5.426;2024-02-15T05:55:53;15.70;99.90
49731;DHT22;35622;52.008;5.426;2024-02-15T05:58:18;15.70;99.90
49731;DHT22;35622;52.008;5.426;2024-02-15T06:00:44;15.60;99.90
49731;DHT22;35622;52.008;5.426;2024-02-15T06:03:10;15.60;99.90
49731;DHT22;35622;52.008;5.426;2024-02-15T06:05:37;15.60;99.90
49731;DHT22;35622;52.008;5.426;2024-02-15T06:08:03;15.70;99.90
49731;DHT22;35622;52.008;5.426;2024-02-15T06:10:29;15.80;99.90
49731;DHT22;35622;52.008;5.426;2024-02-15T06:12:56;15.80;99.90
49731;DHT22;35622;52.008;5.426;2024-02-15T06:15:23;15.90;99.90
49731;DHT22;35622;52.008;5.426;2024-02-15T06:17:49;16.10;99.90
49731;DHT22;35622;52.008;5.426;2024-02-15T06:20:15;16.10;99.90
49731;DHT22;35622;52.008;5.426;2024-02-15T06:22:43;16.10;99.90
49731;DHT22;35622;52.008;5.426;2024-02-15T06:25:10;16.20;99.90
49731;DHT22;35622;52.008;5.426;2024-02-15T06:27:37;16.20;99.90
49731;DHT22;35622;52.008;5.426;2024-02-15T06:30:07;16.40;99.90
49731;DHT22;35622;52.008;5.426;2024-02-15T06:32:51;16.30;99.90
49731;DHT22;35622;52.008;5.426;2024-02-15T06:35:35;16.30;99.90
49731;DHT22;35622;52.008;5.426;2024-02-15T06:38:19;16.30;99.90
49731;DHT22;35622;52.008;5.426;2024-02-15T06:41:03;16.20;99.90
49731;DHT22;35622;52.008;5.426;2024-02-15T06:43:30;16.10;99.90
49731;DHT22;35622;52.008;5.426;2024-02-15T06:45:55;16.10;99.90
49731;DHT22;35622;52.008;5.426;2024-02-15T06:48:21;16.00;99.90
49731;DHT22;35622;52.008;5.426;2024-02-15T06:50:49;16.00;99.90
49731;DHT22;35622;52.008;5.426;2024-02-15T06:53:15;16.10;99.90
49731;DHT22;35622;52.008;5.426;2024-02-15T06:55:40;16.20;99.90
49731;DHT22;35622;52.008;5.426;2024-02-15T06:58:07;16.10;99.90
49731;DHT22;35622;52.008;5.426;2024-02-15T07:00:33;16.10;99.90
49731;DHT22;35622;52.008;5.426;2024-02-15T07:02:59;16.20;99.90
49731;DHT22;35622;52.008;5.426;2024-02-15T07:05:24;16.20;99.90
49731;DHT22;35622;52.008;5.426;2024-02-15T07:07:53;16.20;99.90
49731;DHT22;35622;52.008;5.426;2024-02-15T07:10:20;16.30;99.90
49731;DHT22;35622;52.008;5.426;2024-02-15T07:12:46;16.10;99.90
49731;DHT22;35622;52.008;5.426;2024-02-15T07:15:12;16.20;99.90
49731;DHT22;35622;52.008;5.426;2024-02-15T07:17:38;16.20;99.90
49731;DHT22;35622;52.008;5.426;2024-02-15T07:20:05;16.20;99.90
49731;DHT22;35622;52.008;5.426;2024-02-15T07:22:32;16.20;99.90
49731;DHT22;35622;52.008;5.426;2024-02-15T07:24:57;16.10;99.90
49731;DHT22;35622;52.008;5.426;2024-02-15T07:27:23;16.20;99.90
49731;DHT22;35622;52.008;5.426;2024-02-15T07:29:51;16.20;99.90
49731;DHT22;35622;52.008;5.426;2024-02-15T07:32:17;16.30;99.90
49731;DHT22;35622;52.008;5.426;2024-02-15T07:34:43;16.30;99.90
49731;DHT22;35622;52.008;5.426;2024-02-15T07:37:11;16.30;99.90
49731;DHT22;35622;52.008;5.426;2024-02-15T07:39:38;16.40;99.90
49731;DHT22;35622;52.008;5.426;2024-02-15T07:42:03;16.40;99.90
49731;DHT22;35622;52.008;5.426;2024-02-15T07:44:30;16.40;99.90
49731;DHT22;35622;52.008;5.426;2024-02-15T07:46:58;16.40;99.90
49731;DHT22;35622;52.008;5.426;2024-02-15T07:49:26;16.50;99.90
49731;DHT22;35622;52.008;5.426;2024-02-15T07:51:51;16.40;99.90
49731;DHT22;35622;52.008;5.426;2024-02-15T07:54:22;16.40;99.90
49731;DHT22;35622;52.008;5.426;2024-02-15T07:56:48;16.20;99.90
49731;DHT22;35622;52.008;5.426;2024-02-15T07:59:14;16.10;99.90
49731;DHT22;35622;52.008;5.426;2024-02-15T08:01:42;16.20;99.90
49731;DHT22;35622;52.008;5.426;2024-02-15T08:04:09;16.30;99.90
49731;DHT22;35622;52.008;5.426;2024-02-15T08:06:34;16.20;99.90
49731;DHT22;35622;52.008;5.426;2024-02-15T08:09:02;16.30;99.90
49731;DHT22;35622;52.008;5.426;2024-02-15T08:11:30;16.30;99.90
49731;DHT22;35622;52.008;5.426;2024-02-15T08:13:56;16.40;99.90
49731;DHT22;35622;52.008;5.426;2024-02-15T08:16:25;16.30;99.90
49731;DHT22;35622;52.008;5.426;2024-02-15T08:18:54;16.30;99.90
49731;DHT22;35622;52.008;5.426;2024-02-15T08:21:27;16.20;99.90
49731;DHT22;35622;52.008;5.426;2024-02-15T08:23:55;16.10;99.90
49731;DHT22;35622;52.008;5.426;2024-02-15T08:26:21;15.80;99.90
49731;DHT22;35622;52.008;5.426;2024-02-15T08:28:47;15.90;99.90
49731;DHT22;35622;52.008;5.426;2024-02-15T08:31:12;15.70;99.90
49731;DHT22;35622;52.008;5.426;2024-02-15T08:33:41;15.80;99.90
49731;DHT22;35622;52.008;5.426;2024-02-15T08:36:08;16.00;99.90
49731;DHT22;35622;52.008;5.426;2024-02-15T08:38:39;16.10;99.90
49731;DHT22;35622;52.008;5.426;2024-02-15T08:41:04;16.20;99.90
49731;DHT22;35622;52.008;5.426;2024-02-15T08:43:32;16.00;99.90
49731;DHT22;35622;52.008;5.426;2024-02-15T08:45:58;16.10;99.90
49731;DHT22;35622;52.008;5.426;2024-02-15T08:48:24;16.20;99.90
49731;DHT22;35622;52.008;5.426;2024-02-15T08:50:51;16.30;99.90
49731;DHT22;35622;52.008;5.426;2024-02-15T08:53:16;16.40;99.90
49731;DHT22;35622;52.008;5.426;2024-02-15T08:55:44;16.30;99.90
49731;DHT22;35622;52.008;5.426;2024-02-15T08:58:10;16.40;99.90
49731;DHT22;35622;52.008;5.426;2024-02-15T09:00:36;16.50;99.90
49731;DHT22;35622;52.008;5.426;2024-02-15T09:03:03;16.40;99.90
49731;DHT22;35622;52.008;5.426;2024-02-15T09:05:28;16.30;99.90
49731;DHT22;35622;52.008;5.426;2024-02-15T09:07:54;16.30;99.90
49731;DHT22;35622;52.008;5.426;2024-02-15T09:10:20;16.50;99.90
49731;DHT22;35622;52.008;5.426;2024-02-15T09:12:48;16.50;99.90
49731;DHT22;35622;52.008;5.426;2024-02-15T09:15:14;16.50;99.90
49731;DHT22;35622;52.008;5.426;2024-02-15T09:17:41;16.50;99.90
49731;DHT22;35622;52.008;5.426;2024-02-15T09:20:15;16.50;99.90
49731;DHT22;35622;52.008;5.426;2024-02-15T09:22:51;16.60;99.90
49731;DHT22;35622;52.008;5.426;2024-02-15T09:25:17;16.60;99.90
49731;DHT22;35622;52.008;5.426;2024-02-15T09:27:43;16.70;99.90
49731;DHT22;35622;52.008;5.426;2024-02-15T09:30:10;16.70;99.90
49731;DHT22;35622;52.008;5.426;2024-02-15T09:32:37;16.80;99.90
49731;DHT22;35622;52.008;5.426;2024-02-15T09:35:03;16.80;99.90
49731;DHT22;35622;52.008;5.426;2024-02-15T09:37:36;17.00;99.90
49731;DHT22;35622;52.008;5.426;2024-02-15T09:40:08;16.90;99.90
49731;DHT22;35622;52.008;5.426;2024-02-15T09:42:36;16.70;99.90
49731;DHT22;35622;52.008;5.426;2024-02-15T09:45:05;16.60;99.90
49731;DHT22;35622;52.008;5.426;2024-02-15T09:47:37;16.60;99.90
49731;DHT22;35622;52.008;5.426;2024-02-15T09:52:40;16.70;99.90
49731;DHT22;35622;52.008;5.426;2024-02-15T09:55:07;16.80;99.90
49731;DHT22;35622;52.008;5.426;2024-02-15T09:57:36;16.80;99.90
49731;DHT22;35622;52.008;5.426;2024-02-15T10:00:02;16.90;99.90
49731;DHT22;35622;52.008;5.426;2024-02-15T10:02:34;16.90;99.90
49731;DHT22;35622;52.008;5.426;2024-02-15T10:05:02;16.90;99.90
49731;DHT22;35622;52.008;5.426;2024-02-15T10:07:28;16.70;99.90
49731;DHT22;35622;52.008;5.426;2024-02-15T10:09:54;16.70;99.90
49731;DHT22;35622;52.008;5.426;2024-02-15T10:12:20;16.80;99.90
49731;DHT22;35622;52.008;5.426;2024-02-15T10:14:50;16.70;99.90
49731;DHT22;35622;52.008;5.426;2024-02-15T10:17:16;16.60;99.90
49731;DHT22;35622;52.008;5.426;2024-02-15T10:19:43;16.80;99.90
49731;DHT22;35622;52.008;5.426;2024-02-15T10:22:10;16.90;99.90
49731;DHT22;35622;52.008;5.426;2024-02-15T10:24:37;16.80;99.90
49731;DHT22;35622;52.008;5.426;2024-02-15T10:27:05;16.70;99.90
49731;DHT22;35622;52.008;5.426;2024-02-15T10:29:33;16.70;99.90
49731;DHT22;35622;52.008;5.426;2024-02-15T10:32:03;16.80;99.90
49731;DHT22;35622;52.008;5.426;2024-02-15T10:34:30;17.00;99.90
49731;DHT22;35622;52.008;5.426;2024-02-15T10:37:12;17.10;99.90
49731;DHT22;35622;52.008;5.426;2024-02-15T10:39:38;17.10;99.90
49731;DHT22;35622;52.008;5.426;2024-02-15T10:42:06;17.20;99.90
49731;DHT22;35622;52.008;5.426;2024-02-15T10:44:32;17.20;99.90
49731;DHT22;35622;52.008;5.426;2024-02-15T10:47:02;17.30;99.90
49731;DHT22;35622;52.008;5.426;2024-02-15T10:49:32;17.30;99.90
49731;DHT22;35622;52.008;5.426;2024-02-15T10:52:00;17.30;99.90
49731;DHT22;35622;52.008;5.426;2024-02-15T10:54:47;17.30;99.90
49731;DHT22;35622;52.008;5.426;2024-02-15T10:57:13;17.30;99.90
49731;DHT22;35622;52.008;5.426;2024-02-15T11:00:02;17.40;99.90
49731;DHT22;35622;52.008;5.426;2024-02-15T11:02:45;17.50;99.90
49731;DHT22;35622;52.008;5.426;2024-02-15T11:05:16;17.40;99.90
49731;DHT22;35622;52.008;5.426;2024-02-15T11:07:46;17.30;99.90
49731;DHT22;35622;52.008;5.426;2024-02-15T11:10:12;17.30;99.90
49731;DHT22;35622;52.008;5.426;2024-02-15T11:12:42;17.20;99.90
49731;DHT22;35622;52.008;5.426;2024-02-15T11:15:09;17.20;99.90
49731;DHT22;35622;52.008;5.426;2024-02-15T11:20:09;17.40;99.90
49731;DHT22;35622;52.008;5.426;2024-02-15T11:22:37;17.50;99.90
49731;DHT22;35622;52.008;5.426;2024-02-15T11:25:04;17.60;99.90
49731;DHT22;35622;52.008;5.426;2024-02-15T11:27:35;17.40;99.90
49731;DHT22;35622;52.008;5.426;2024-02-15T11:30:03;17.40;99.90
49731;DHT22;35622;52.008;5.426;2024-02-15T11:32:41;17.60;99.90
49731;DHT22;35622;52.008;5.426;2024-02-15T11:35:13;17.70;99.90
49731;DHT22;35622;52.008;5.426;2024-02-15T11:42:25;17.80;99.90
49731;DHT22;35622;52.008;5.426;2024-02-15T11:45:06;17.80;99.90
49731;DHT22;35622;52.008;5.426;2024-02-15T11:47:39;17.60;99.90
49731;DHT22;35622;52.008;5.426;2024-02-15T11:50:09;17.80;99.90
49731;DHT22;35622;52.008;5.426;2024-02-15T11:52:40;17.90;99.90
49731;DHT22;35622;52.008;5.426;2024-02-15T11:55:08;17.80;99.90
49731;DHT22;35622;52.008;5.426;2024-02-15T11:57:39;17.80;99.90
49731;DHT22;35622;52.008;5.426;2024-02-15T12:03:03;18.10;99.90
49731;DHT22;35622;52.008;5.426;2024-02-15T12:05:49;18.00;99.90
49731;DHT22;35622;52.008;5.426;2024-02-15T12:08:33;18.00;99.90
49731;DHT22;35622;52.008;5.426;2024-02-15T12:11:18;18.20;99.90
49731;DHT22;35622;52.008;5.426;2024-02-15T12:14:02;18.20;99.90
49731;DHT22;35622;52.008;5.426;2024-02-15T12:16:46;18.30;99.90
49731;DHT22;35622;52.008;5.426;2024-02-15T12:19:30;18.30;99.90
49731;DHT22;35622;52.008;5.426;2024-02-15T12:21:57;18.40;99.90
49731;DHT22;35622;52.008;5.426;2024-02-15T12:24:24;18.30;99.90
49731;DHT22;35622;52.008;5.426;2024-02-15T12:26:59;18.50;99.90
49731;DHT22;35622;52.008;5.426;2024-02-15T12:29:26;18.70;99.90
49731;DHT22;35622;52.008;5.426;2024-02-15T12:31:52;18.70;99.90
49731;DHT22;35622;52.008;5.426;2024-02-15T12:34:20;18.70;99.90
49731;DHT22;35622;52.008;5.426;2024-02-15T12:36:46;18.80;99.90
49731;DHT22;35622;52.008;5.426;2024-02-15T12:39:14;18.80;99.90
49731;DHT22;35622;52.008;5.426;2024-02-15T12:41:49;18.90;99.90
49731;DHT22;35622;52.008;5.426;2024-02-15T12:44:18;19.00;99.90
49731;DHT22;35622;52.008;5.426;2024-02-15T12:46:54;19.10;99.90
49731;DHT22;35622;52.008;5.426;2024-02-15T12:51:54;19.10;99.90
49731;DHT22;35622;52.008;5.426;2024-02-15T12:54:39;19.30;99.90
49731;DHT22;35622;52.008;5.426;2024-02-15T12:57:08;19.40;99.90
49731;DHT22;35622;52.008;5.426;2024-02-15T12:59:39;19.40;99.90
49731;DHT22;35622;52.008;5.426;2024-02-15T13:02:04;19.40;98.80
49731;DHT22;35622;52.008;5.426;2024-02-15T13:04:30;19.30;98.80
49731;DHT22;35622;52.008;5.426;2024-02-15T13:06:56;19.40;99.70
49731;DHT22;35622;52.008;5.426;2024-02-15T13:09:21;19.40;99.10
49731;DHT22;35622;52.008;5.426;2024-02-15T13:11:48;19.30;98.90
49731;DHT22;35622;52.008;5.426;2024-02-15T13:14:15;19.00;98.30
49731;DHT22;35622;52.008;5.426;2024-02-15T13:16:41;19.30;99.50
49731;DHT22;35622;52.008;5.426;2024-02-15T13:19:08;19.50;98.50
49731;DHT22;35622;52.008;5.426;2024-02-15T13:21:34;19.30;98.80
49731;DHT22;35622;52.008;5.426;2024-02-15T13:24:00;19.30;98.50
49731;DHT22;35622;52.008;5.426;2024-02-15T13:26:30;19.50;98.50
49731;DHT22;35622;52.008;5.426;2024-02-15T13:28:56;19.50;97.80
49731;DHT22;35622;52.008;5.426;2024-02-15T13:31:21;19.40;98.20
49731;DHT22;35622;52.008;5.426;2024-02-15T13:33:48;19.40;97.40
49731;DHT22;35622;52.008;5.426;2024-02-15T13:36:14;19.50;97.80
49731;DHT22;35622;52.008;5.426;2024-02-15T13:38:41;19.30;96.60
49731;DHT22;35622;52.008;5.426;2024-02-15T13:41:07;19.30;98.10
49731;DHT22;35622;52.008;5.426;2024-02-15T13:43:34;19.20;97.70
49731;DHT22;35622;52.008;5.426;2024-02-15T13:45:59;19.10;97.30
49731;DHT22;35622;52.008;5.426;2024-02-15T13:48:29;18.90;98.00
49731;DHT22;35622;52.008;5.426;2024-02-15T13:50:55;19.20;97.90
49731;DHT22;35622;52.008;5.426;2024-02-15T13:53:22;19.10;97.10
49731;DHT22;35622;52.008;5.426;2024-02-15T13:55:47;19.10;97.80
49731;DHT22;35622;52.008;5.426;2024-02-15T13:58:13;19.10;97.50
49731;DHT22;35622;52.008;5.426;2024-02-15T14:00:39;19.40;97.30
49731;DHT22;35622;52.008;5.426;2024-02-15T14:03:07;19.30;96.90
49731;DHT22;35622;52.008;5.426;2024-02-15T14:05:35;19.10;96.90
49731;DHT22;35622;52.008;5.426;2024-02-15T14:08:02;19.10;97.30
49731;DHT22;35622;52.008;5.426;2024-02-15T14:10:29;19.00;97.30
49731;DHT22;35622;52.008;5.426;2024-02-15T14:12:55;19.10;97.30
49731;DHT22;35622;52.008;5.426;2024-02-15T14:15:23;18.90;97.00
49731;DHT22;35622;52.008;5.426;2024-02-15T14:17:49;18.90;97.50
49731;DHT22;35622;52.008;5.426;2024-02-15T14:20:15;18.80;97.60
49731;DHT22;35622;52.008;5.426;2024-02-15T14:22:45;18.90;97.90
49731;DHT22;35622;52.008;5.426;2024-02-15T14:25:15;19.10;97.90
49731;DHT22;35622;52.008;5.426;2024-02-15T14:27:41;19.30;98.00
49731;DHT22;35622;52.008;5.426;2024-02-15T14:30:08;19.50;97.40
49731;DHT22;35622;52.008;5.426;2024-02-15T14:32:52;19.60;97.60
49731;DHT22;35622;52.008;5.426;2024-02-15T14:35:32;19.70;97.70
49731;DHT22;35622;52.008;5.426;2024-02-15T14:38:00;19.50;95.90
49731;DHT22;35622;52.008;5.426;2024-02-15T14:40:28;19.60;96.40
49731;DHT22;35622;52.008;5.426;2024-02-15T14:42:54;19.60;96.10
49731;DHT22;35622;52.008;5.426;2024-02-15T14:45:20;19.70;95.80
49731;DHT22;35622;52.008;5.426;2024-02-15T14:47:46;19.90;96.10
49731;DHT22;35622;52.008;5.426;2024-02-15T14:50:12;19.90;96.10
49731;DHT22;35622;52.008;5.426;2024-02-15T14:52:39;19.90;96.30
49731;DHT22;35622;52.008;5.426;2024-02-15T14:55:06;19.70;95.00
49731;DHT22;35622;52.008;5.426;2024-02-15T14:57:36;19.70;96.20
49731;DHT22;35622;52.008;5.426;2024-02-15T15:00:05;19.80;95.70
49731;DHT22;35622;52.008;5.426;2024-02-15T15:02:38;19.80;94.90
49731;DHT22;35622;52.008;5.426;2024-02-15T15:05:03;19.60;95.30
49731;DHT22;35622;52.008;5.426;2024-02-15T15:07:48;19.60;95.60
49731;DHT22;35622;52.008;5.426;2024-02-15T15:10:32;19.70;95.60
49731;DHT22;35622;52.008;5.426;2024-02-15T15:13:16;19.80;95.40
49731;DHT22;35622;52.008;5.426;2024-02-15T15:15:43;19.80;95.10
49731;DHT22;35622;52.008;5.426;2024-02-15T15:18:08;19.80;95.30
49731;DHT22;35622;52.008;5.426;2024-02-15T15:20:35;19.80;95.10
49731;DHT22;35622;52.008;5.426;2024-02-15T15:23:02;19.80;95.00
49731;DHT22;35622;52.008;5.426;2024-02-15T15:25:27;19.80;95.00
49731;DHT22;35622;52.008;5.426;2024-02-15T15:27:56;19.90;95.10
49731;DHT22;35622;52.008;5.426;2024-02-15T15:30:22;19.80;95.80
49731;DHT22;35622;52.008;5.426;2024-02-15T15:32:48;19.80;94.90
49731;DHT22;35622;52.008;5.426;2024-02-15T15:35:14;19.60;95.50
49731;DHT22;35622;52.008;5.426;2024-02-15T15:37:39;19.60;95.70
49731;DHT22;35622;52.008;5.426;2024-02-15T15:40:05;19.70;95.80
49731;DHT22;35622;52.008;5.426;2024-02-15T15:42:35;19.70;95.80
49731;DHT22;35622;52.008;5.426;2024-02-15T15:45:04;19.80;95.50
49731;DHT22;35622;52.008;5.426;2024-02-15T15:47:30;19.70;95.20
49731;DHT22;35622;52.008;5.426;2024-02-15T15:49:56;19.80;95.30
49731;DHT22;35622;52.008;5.426;2024-02-15T15:52:26;19.70;95.10